Time;durP1;ratioP1;P1;durP2;ratioP2;P2;SDS_P1;SDS_P2;PMS_P1;PMS_P2;Temp;Humidity;BMP_temperature;BMP_pressure;BME280_temperature;BME280_humidity;BME280_pressure;Samples;Min_cycle;Max_cycle;Signal;HPM_P1;HPM_P2
2022/08/10 00:02:39;;;;;;;2.35;2.25;;;22.50;99.90;;;22.86;58.78;102646.53;5069477;28;20516;-58
2022/08/10 00:05:08;;;;;;;2.45;2.35;;;22.60;99.90;;;22.91;58.67;102644.59;5054413;28;20131;-58
2022/08/10 00:07:38;;;;;;;2.50;2.40;;;22.60;99.90;;;22.89;58.49;102644.63;5054415;28;20441;-58
2022/08/10 00:10:09;;;;;;;2.38;2.28;;;22.60;99.90;;;22.84;58.53;102643.84;5054351;28;20470;-59
2022/08/10 00:12:37;;;;;;;2.22;2.13;;;22.50;99.90;;;22.71;58.59;102639.72;5069455;28;20049;-58
2022/08/10 00:15:23;;;;;;;3.70;3.42;;;22.40;99.90;;;22.76;58.37;102636.91;5054277;28;20148;-59
2022/08/10 00:18:13;;;;;;;2.10;2.00;;;22.40;99.90;;;22.68;58.55;102629.03;5054008;28;20456;-58
2022/08/10 00:21:02;;;;;;;2.55;2.45;;;22.40;99.90;;;22.61;58.12;102637.31;5053949;28;20287;-59
2022/08/10 00:23:30;;;;;;;2.17;2.08;;;22.30;99.90;;;22.60;58.41;102624.72;5053845;28;20037;-58
2022/08/10 00:25:58;;;;;;;2.63;2.53;;;22.30;99.90;;;22.53;58.03;102628.50;5054098;28;20049;-59
2022/08/10 00:28:27;;;;;;;2.40;2.30;;;22.20;99.90;;;22.58;58.14;102627.47;5053707;28;20115;-59
2022/08/10 00:30:55;;;;;;;2.28;2.17;;;22.20;99.90;;;22.57;58.09;102632.91;5053663;28;20044;-59
2022/08/10 00:33:25;;;;;;;2.55;2.45;;;22.20;99.90;;;22.52;58.21;102615.91;5053841;28;20037;-59
2022/08/10 00:35:53;;;;;;;2.00;1.90;;;22.20;99.90;;;22.67;57.98;102631.72;5053606;28;20082;-59
2022/08/10 00:38:22;;;;;;;2.53;2.42;;;22.30;99.90;;;22.53;57.94;102625.81;5053823;28;20394;-59
2022/08/10 00:40:50;;;;;;;2.40;2.30;;;22.20;99.90;;;22.27;58.19;102621.94;5053507;28;20045;-58
2022/08/10 00:43:19;;;;;;;2.70;2.60;;;22.10;99.90;;;22.14;58.71;102628.53;5053619;28;20724;-58
2022/08/10 00:45:52;;;;;;;2.55;2.45;;;21.90;99.90;;;22.14;58.81;102625.84;5053758;28;20049;-59
2022/08/10 00:48:29;;;;;;;2.50;2.40;;;21.80;99.90;;;22.07;59.01;102632.31;5053417;28;20069;-58
2022/08/10 00:50:59;;;;;;;2.42;2.33;;;21.70;99.90;;;21.75;59.06;102556.72;5053886;28;20041;-59
2022/08/10 00:53:28;;;;;;;3.17;2.88;;;21.80;99.90;;;22.19;59.02;102625.75;5053216;28;20132;-58
2022/08/10 00:55:57;;;;;;;2.28;2.17;;;21.80;99.90;;;22.21;58.78;102626.59;5053231;28;20073;-58
2022/08/10 00:58:46;;;;;;;3.05;2.95;;;21.90;99.90;;;22.20;58.57;102631.09;5053870;28;20055;-59
2022/08/10 01:01:15;;;;;;;2.53;2.42;;;21.90;99.90;;;22.14;58.76;102617.75;5068838;28;20102;-59
2022/08/10 01:04:07;;;;;;;2.35;2.25;;;21.90;99.90;;;21.94;59.14;102621.88;5052138;28;20055;-58
2022/08/10 01:07:14;;;;;;;2.55;2.45;;;21.60;99.90;;;21.90;59.53;102615.66;5053392;28;20048;-59
2022/08/10 01:09:54;;;;;;;2.22;2.13;;;21.60;99.90;;;21.88;59.63;102614.81;5053650;28;20116;-59
2022/08/10 01:12:32;;;;;;;5.10;4.63;;;21.60;99.90;;;21.77;59.49;102614.16;5053581;28;20049;-58
2022/08/10 01:15:20;;;;;;;2.42;2.33;;;21.50;99.90;;;21.74;60.08;102616.03;5052969;28;20429;-58
2022/08/10 01:17:55;;;;;;;2.42;2.33;;;21.40;99.90;;;21.78;60.00;102605.13;5053762;28;20083;-58
2022/08/10 01:20:36;;;;;;;2.40;2.30;;;21.50;99.90;;;21.74;59.92;102608.81;5053009;28;20037;-58
2022/08/10 01:23:53;;;;;;;2.58;2.47;;;21.50;99.90;;;21.72;59.82;102599.88;5053241;28;20502;-58
2022/08/10 01:26:45;;;;;;;2.33;2.22;;;21.50;99.90;;;21.73;60.25;102603.47;5052846;28;20041;-59
2022/08/10 01:29:58;;;;;;;2.70;2.60;;;21.40;99.90;;;21.65;60.05;102600.94;5053468;28;20053;-58
2022/08/10 01:32:44;;;;;;;2.30;2.20;;;21.40;99.90;;;21.74;60.32;102607.94;5048381;28;20059;-59
2022/08/10 01:35:20;;;;;;;2.70;2.60;;;21.40;99.90;;;21.75;60.08;102610.59;5052872;28;20052;-59
2022/08/10 01:37:59;;;;;;;2.40;2.30;;;21.40;99.90;;;21.76;59.95;102608.75;5051935;28;20136;-59
2022/08/10 01:40:32;;;;;;;2.55;2.45;;;21.40;99.90;;;21.65;60.46;102600.94;5053111;28;20410;-59
2022/08/10 01:43:05;;;;;;;2.70;2.60;;;21.30;99.90;;;21.66;60.60;102605.41;5052862;28;20427;-59
2022/08/10 01:45:42;;;;;;;2.70;2.60;;;21.30;99.90;;;21.62;60.50;102597.44;5052745;28;20491;-58
2022/08/10 01:48:28;;;;;;;2.45;2.35;;;21.30;99.90;;;21.47;60.67;102582.50;5052732;28;20072;-59
2022/08/10 01:51:04;;;;;;;2.53;2.42;;;21.20;99.90;;;21.61;60.52;102607.31;5053207;28;20040;-58
2022/08/10 01:53:40;;;;;;;2.20;2.10;;;21.30;99.90;;;21.58;60.76;102604.72;5052980;28;20045;-58
2022/08/10 01:56:14;;;;;;;2.92;2.83;;;21.30;99.90;;;21.59;60.70;102601.06;5052595;28;20095;-58
2022/08/10 01:58:46;;;;;;;2.47;2.38;;;21.20;99.90;;;21.57;60.89;102608.31;5052642;28;20132;-59
2022/08/10 02:01:24;;;;;;;3.00;2.90;;;21.30;99.90;;;21.58;60.90;102607.41;5051641;28;20102;-59
2022/08/10 02:03:58;;;;;;;2.83;2.72;;;21.30;99.90;;;21.45;60.89;102589.72;5052572;28;20075;-58
2022/08/10 02:06:37;;;;;;;2.50;2.40;;;21.20;99.90;;;21.51;61.02;102603.03;5052558;28;20071;-58
2022/08/10 02:09:08;;;;;;;2.58;2.47;;;21.20;99.90;;;21.44;61.22;102593.34;5055622;28;20345;-59
2022/08/10 02:11:36;;;;;;;;;;;21.10;99.90;;;21.44;61.13;102596.94;5055830;28;20053;-58
2022/08/10 02:14:29;;;;;;;2.30;2.20;;;21.20;99.90;;;21.45;61.34;102595.09;5056248;28;20274;-58
2022/08/10 02:17:10;;;;;;;2.67;2.58;;;21.20;99.90;;;20.74;61.55;102480.88;5056653;28;20052;-58
2022/08/10 02:20:02;;;;;;;2.47;2.38;;;21.10;99.90;;;21.41;61.60;102590.69;5056263;28;20127;-58
2022/08/10 02:22:34;;;;;;;2.42;2.33;;;21.10;99.90;;;21.34;61.76;102586.38;5071803;28;20543;-58
2022/08/10 02:25:09;;;;;;;2.20;2.10;;;21.10;99.90;;;21.28;62.12;102591.88;5055060;28;20072;-58
2022/08/10 02:28:02;;;;;;;2.22;2.13;;;20.90;99.90;;;21.30;62.05;102598.13;5055995;28;20041;-58
2022/08/10 02:30:32;;;;;;;2.58;2.47;;;21.00;99.90;;;21.35;61.93;102598.94;5056005;28;20453;-58
2022/08/10 02:33:03;;;;;;;;;;;21.00;99.90;;;21.31;62.11;102605.31;5056660;28;20367;-58
2022/08/10 02:35:32;;;;;;;;;;;21.00;99.90;;;21.29;62.20;102602.63;5056278;28;19920;-58
2022/08/10 02:38:25;;;;;;;2.75;2.65;;;21.00;99.90;;;21.28;62.17;102605.34;5056107;28;20259;-58
2022/08/10 02:41:29;;;;;;;2.50;2.40;;;21.00;99.90;;;21.33;62.17;102603.47;5055866;28;20100;-58
2022/08/10 02:44:27;;;;;;;2.53;2.42;;;21.00;99.90;;;21.08;62.23;102560.00;5055760;28;20679;-58
2022/08/10 02:47:25;;;;;;;2.85;2.75;;;21.00;99.90;;;21.34;62.26;102597.16;5055741;28;20037;-58
2022/08/10 02:50:03;;;;;;;2.35;2.25;;;21.00;99.90;;;21.29;62.13;102580.22;5055951;28;20049;-58
2022/08/10 02:52:40;;;;;;;2.60;2.50;;;21.00;99.90;;;21.20;62.38;102594.75;5055592;28;20069;-58
2022/08/10 02:55:18;;;;;;;2.80;2.70;;;20.90;99.90;;;21.21;62.21;102579.47;5055767;28;20094;-58
2022/08/10 02:57:57;;;;;;;2.65;2.55;;;20.90;99.90;;;21.23;62.68;102577.66;5056019;28;20041;-59
2022/08/10 03:00:50;;;;;;;2.55;2.45;;;20.90;99.90;;;21.26;62.71;102567.69;5055482;28;20048;-59
2022/08/10 03:03:23;;;;;;;2.35;2.25;;;20.90;99.90;;;21.15;62.56;102558.06;5054706;28;20493;-58
2022/08/10 03:05:57;;;;;;;2.50;2.40;;;20.90;99.90;;;21.28;62.60;102575.72;5055380;28;20098;-58
2022/08/10 03:08:32;;;;;;;2.60;2.50;;;21.00;99.90;;;21.11;62.36;102554.56;5055755;28;20044;-58
2022/08/10 03:11:03;;;;;;;2.55;2.45;;;20.90;99.90;;;21.13;62.72;102574.25;5055268;28;20106;-59
2022/08/10 03:13:33;;;;;;;2.58;2.47;;;20.90;99.90;;;21.12;62.89;102568.88;5055450;28;20243;-58
2022/08/10 03:16:04;;;;;;;2.33;2.22;;;20.80;99.90;;;20.95;63.10;102565.63;5055128;28;20483;-58
2022/08/10 03:18:34;;;;;;;2.65;2.55;;;20.70;99.90;;;20.99;63.46;102567.34;5055335;28;20049;-58
2022/08/10 03:21:06;;;;;;;2.63;2.53;;;20.70;99.90;;;21.00;63.49;102569.13;5054367;28;20041;-58
2022/08/10 03:23:41;;;;;;;2.58;2.47;;;20.70;99.90;;;20.97;63.65;102571.84;5055043;28;20061;-59
2022/08/10 03:26:11;;;;;;;2.22;2.13;;;20.70;99.90;;;20.74;63.92;102529.28;5070559;28;20045;-58
2022/08/10 03:28:40;;;;;;;2.90;2.80;;;20.70;99.90;;;20.98;63.78;102563.75;5054877;28;20033;-58
2022/08/10 03:31:09;;;;;;;2.28;2.17;;;20.70;99.90;;;20.96;63.83;102573.69;5055215;28;20366;-58
2022/08/10 03:33:40;;;;;;;2.60;2.50;;;20.70;99.90;;;20.93;63.92;102557.59;5055059;28;20040;-59
2022/08/10 03:36:10;;;;;;;2.38;2.28;;;20.70;99.90;;;20.97;64.08;102566.47;5054958;28;20037;-59
2022/08/10 03:38:59;;;;;;;2.60;2.50;;;20.70;99.90;;;21.02;64.06;102562.81;5054742;28;20566;-58
2022/08/10 03:41:31;;;;;;;2.35;2.25;;;20.70;99.90;;;21.03;64.10;102569.97;5054880;28;20522;-59
2022/08/10 03:44:05;;;;;;;2.83;2.72;;;20.70;99.90;;;21.00;64.43;102567.28;5054424;28;20053;-59
2022/08/10 03:46:38;;;;;;;2.25;2.15;;;20.70;99.90;;;21.05;64.32;102561.88;5054599;28;20128;-59
2022/08/10 03:49:07;;;;;;;2.63;2.53;;;20.70;99.90;;;20.98;64.43;102558.38;5054584;28;20064;-58
2022/08/10 03:51:38;;;;;;;2.78;2.67;;;20.70;99.90;;;20.96;64.25;102554.84;5054758;28;20136;-58
2022/08/10 03:54:06;;;;;;;3.05;2.95;;;20.70;99.90;;;20.76;64.65;102522.06;5053488;28;20182;-58
2022/08/10 03:56:37;;;;;;;2.80;2.70;;;20.60;99.90;;;20.98;64.69;102568.28;5054308;28;20128;-58
2022/08/10 03:59:11;;;;;;;3.00;2.90;;;20.70;99.90;;;20.92;64.66;102552.25;5054312;28;20124;-58
2022/08/10 04:01:41;;;;;;;3.17;3.08;;;20.60;99.90;;;20.90;64.99;102564.84;5054192;28;20044;-59
2022/08/10 04:04:30;;;;;;;3.03;2.92;;;20.60;99.90;;;20.97;64.79;102566.47;5054446;28;20482;-58
2022/08/10 04:07:01;;;;;;;2.75;2.65;;;20.60;99.90;;;20.93;65.07;102567.44;5054363;28;20127;-59
2022/08/10 04:09:31;;;;;;;2.83;2.72;;;20.60;99.90;;;20.87;65.24;102563.09;5054087;28;20090;-58
2022/08/10 04:12:19;;;;;;;2.40;2.30;;;20.60;99.90;;;20.88;65.40;102551.44;5054119;28;20220;-58
2022/08/10 04:14:48;;;;;;;2.58;2.47;;;20.60;99.90;;;20.93;65.41;102560.28;5054213;28;20387;-59
2022/08/10 04:17:22;;;;;;;2.72;2.63;;;20.60;99.90;;;20.93;65.55;102562.97;5054182;28;20048;-59
2022/08/10 04:20:18;;;;;;;2.90;2.80;;;20.60;99.90;;;20.92;65.42;102560.31;5054035;28;20394;-59
2022/08/10 04:22:52;;;;;;;2.70;2.60;;;20.60;99.90;;;20.93;65.64;102562.06;5053847;28;20522;-59
2022/08/10 04:25:24;;;;;;;2.38;2.28;;;20.60;99.90;;;20.60;65.55;102502.66;5053823;28;20429;-59
2022/08/10 04:27:53;;;;;;;3.10;3.00;;;20.70;99.90;;;20.91;65.67;102563.91;5054091;28;20049;-59
2022/08/10 04:30:23;;;;;;;2.70;2.60;;;20.60;99.90;;;20.81;65.86;102547.06;5053378;28;20560;-59
2022/08/10 04:32:57;;;;;;;2.45;2.35;;;20.60;99.90;;;20.85;66.01;102564.91;5053764;28;20048;-59
2022/08/10 04:35:28;;;;;;;2.50;2.40;;;20.60;99.90;;;20.79;66.27;102565.03;5053918;28;20458;-58
2022/08/10 04:37:59;;;;;;;2.97;2.88;;;20.50;99.90;;;20.82;66.45;102564.09;5053675;28;20052;-59
2022/08/10 04:40:29;;;;;;;2.80;2.70;;;20.50;99.90;;;20.86;66.48;102566.72;5053198;28;20483;-59
2022/08/10 04:42:59;;;;;;;;;;;20.50;99.90;;;20.66;66.65;102534.81;5053596;28;20044;-58
2022/08/10 04:45:38;;;;;;;2.78;2.67;;;20.50;99.90;;;20.79;66.56;102556.09;5053580;28;19967;-59
2022/08/10 04:48:23;;;;;;;2.85;2.75;;;20.50;99.90;;;20.64;66.79;102528.56;5053659;28;20041;-58
2022/08/10 04:51:14;;;;;;;2.50;2.40;;;20.50;99.90;;;20.69;67.07;102558.94;5053382;28;20163;-59
2022/08/10 04:53:50;;;;;;;2.60;2.50;;;20.40;99.90;;;20.68;67.19;102549.13;5053349;28;20482;-58
2022/08/10 04:56:36;;;;;;;2.40;2.30;;;20.50;99.90;;;20.89;67.15;102560.34;5053415;28;20088;-59
2022/08/10 04:59:05;;;;;;;;;;;20.60;99.90;;;20.83;67.17;102555.13;5053837;28;20063;-59
2022/08/10 05:01:33;;;;;;;2.40;2.30;;;20.50;99.90;;;20.95;67.36;102565.63;5053123;28;19928;-59
2022/08/10 05:04:22;;;;;;;2.63;2.53;;;20.60;99.90;;;20.98;67.42;102565.56;5068812;28;20037;-58
2022/08/10 05:07:05;;;;;;;2.33;2.22;;;20.70;99.90;;;21.03;67.22;102555.63;5053385;28;20048;-59
2022/08/10 05:09:35;;;;;;;2.55;2.45;;;20.70;99.90;;;21.07;67.15;102565.41;5068619;28;20147;-59
2022/08/10 05:12:24;;;;;;;3.58;3.45;;;20.80;99.90;;;21.07;67.23;102554.66;5053017;28;20406;-58
2022/08/10 05:14:52;;;;;;;2.67;2.58;;;20.80;99.90;;;21.24;67.17;102571.31;5052944;28;20079;-58
2022/08/10 05:17:22;;;;;;;2.38;2.28;;;20.90;99.90;;;21.24;67.31;102569.53;5053190;28;20094;-59
2022/08/10 05:19:51;;;;;;;3.40;3.30;;;20.90;99.90;;;21.02;67.26;102541.28;5052953;28;20041;-59
2022/08/10 05:22:39;;;;;;;2.65;2.55;;;20.90;99.90;;;21.31;67.34;102575.69;5053150;28;20443;-58
2022/08/10 05:25:12;;;;;;;2.78;2.67;;;21.00;99.90;;;21.40;67.31;102570.97;5052853;28;20501;-58
2022/08/10 05:27:41;;;;;;;2.88;2.78;;;21.00;99.90;;;21.49;67.28;102573.47;5052852;28;20045;-58
2022/08/10 05:30:13;;;;;;;2.40;2.30;;;21.20;99.90;;;21.58;67.01;102575.94;5052993;28;20435;-60
2022/08/10 05:32:42;;;;;;;2.63;2.53;;;21.30;99.90;;;21.67;66.89;102572.16;5052768;28;20068;-59
2022/08/10 05:35:29;;;;;;;2.70;2.60;;;21.30;99.90;;;21.50;66.82;102528.56;5053153;28;20041;-58
2022/08/10 05:38:20;;;;;;;2.40;2.30;;;21.40;99.90;;;21.81;66.63;102580.84;5052818;28;20052;-59
2022/08/10 05:40:50;;;;;;;2.65;2.55;;;21.50;99.90;;;21.89;66.24;102570.75;5052691;28;20049;-61
2022/08/10 05:43:21;;;;;;;2.60;2.50;;;21.60;99.90;;;22.00;66.28;102581.28;5054991;28;20059;-62
2022/08/10 05:45:51;;;;;;;;;;;21.70;99.90;;;22.09;65.94;102579.25;5057176;28;20470;-62
2022/08/10 05:48:41;;;;;;;28.42;6.72;;;21.80;99.90;;;22.15;65.93;102571.00;5056735;28;20476;-60
2022/08/10 05:51:29;;;;;;;2.97;2.88;;;21.80;99.90;;;22.18;65.81;102570.06;5056669;28;20037;-58
2022/08/10 05:53:58;;;;;;;2.20;2.10;;;21.90;99.90;;;22.37;65.79;102579.44;5056593;28;20045;-59
2022/08/10 05:56:38;;;;;;;2.10;2.00;;;22.00;99.90;;;22.41;65.22;102571.22;5056488;28;20045;-59
2022/08/10 05:59:30;;;;;;;2.30;2.20;;;22.10;99.90;;;22.51;65.00;102581.78;5056481;28;20068;-58
2022/08/10 06:02:27;;;;;;;3.20;3.10;;;22.20;99.90;;;22.51;64.58;102581.78;5056714;28;20098;-59
2022/08/10 06:05:07;;;;;;;2.35;2.25;;;22.30;99.90;;;22.53;64.05;102545.72;5072134;28;20131;-59
2022/08/10 06:07:41;;;;;;;2.38;2.28;;;22.40;99.90;;;22.60;63.90;102584.25;5056648;28;20120;-59
2022/08/10 06:10:14;;;;;;;2.35;2.25;;;22.40;99.90;;;22.78;63.99;102598.16;5056276;28;20068;-59
2022/08/10 06:16:07;;;;;;;2.33;2.22;;;22.50;99.90;;;23.04;63.14;102571.31;5056311;28;20119;-59
2022/08/10 06:18:36;;;;;;;2.22;2.13;;;22.70;99.90;;;23.18;63.10;102576.31;5056504;28;20041;-60
2022/08/10 06:21:08;;;;;;;2.30;2.20;;;22.80;99.90;;;23.27;63.03;102576.94;5056131;28;20083;-60
2022/08/10 06:23:37;;;;;;;2.60;2.50;;;22.90;99.90;;;23.44;63.13;102573.72;5056174;28;20041;-60
2022/08/10 06:26:07;;;;;;;2.35;2.25;;;23.10;99.90;;;23.61;62.32;102589.44;5056032;28;20056;-60
2022/08/10 06:28:49;;;;;;;2.42;2.33;;;23.30;99.90;;;23.65;61.66;102574.91;5056212;28;20047;-60
2022/08/10 06:31:33;;;;;;;3.17;2.88;;;23.30;99.90;;;23.70;61.78;102573.81;5055905;28;20084;-60
2022/08/10 06:34:21;;;;;;;2.13;2.03;;;23.40;99.90;;;23.64;61.34;102579.41;5056135;28;20053;-60
2022/08/10 06:36:51;;;;;;;2.20;2.10;;;23.30;99.90;;;23.58;61.87;102587.72;5071583;28;20167;-60
2022/08/10 06:39:22;;;;;;;2.10;2.00;;;23.20;99.90;;;23.58;61.59;102573.31;5055887;28;20049;-61
2022/08/10 06:42:10;;;;;;;2.30;2.20;;;23.30;99.90;;;23.75;61.78;102573.69;5056258;28;20037;-60
2022/08/10 06:45:07;;;;;;;3.05;2.85;;;23.40;99.90;;;23.08;62.75;102581.09;5056070;28;20063;-60
2022/08/10 06:47:43;;;;;;;2.40;2.30;;;23.00;99.90;;;23.35;62.63;102581.22;5055587;28;20498;-60
2022/08/10 06:50:18;;;;;;;2.33;2.22;;;23.00;99.90;;;23.45;62.05;102585.44;5055514;28;20126;-60
2022/08/10 06:53:12;;;;;;;2.60;2.50;;;23.10;99.90;;;23.49;61.88;102581.72;5054555;28;20045;-59
2022/08/10 06:55:45;;;;;;;2.20;2.10;;;23.10;99.90;;;23.38;62.43;102594.66;5055574;28;20049;-60
2022/08/10 06:58:29;;;;;;;2.30;2.20;;;23.10;99.90;;;23.37;62.33;102598.28;5071088;28;20507;-60
2022/08/10 07:01:01;;;;;;;2.60;2.50;;;23.10;99.90;;;23.32;62.36;102584.03;5055693;28;20114;-59
2022/08/10 07:03:36;;;;;;;2.58;2.47;;;23.10;99.90;;;23.51;63.15;102585.25;5055691;28;20220;-59
2022/08/10 07:06:08;;;;;;;2.45;2.35;;;23.20;99.90;;;23.68;62.47;102588.31;5055916;28;20068;-62
2022/08/10 07:08:38;;;;;;;2.83;2.72;;;23.30;99.90;;;23.57;62.46;102588.66;5055248;28;20127;-59
2022/08/10 07:11:07;;;;;;;3.25;3.05;;;23.30;99.90;;;23.81;61.53;102585.19;5055401;28;20060;-59
2022/08/10 07:13:40;;;;;;;2.45;2.35;;;23.40;99.90;;;23.82;61.07;102586.97;5055739;28;20103;-60
2022/08/10 07:16:32;;;;;;;2.60;2.50;;;23.50;99.90;;;23.83;61.22;102582.41;5070574;28;20037;-60
2022/08/10 07:19:01;;;;;;;3.13;3.03;;;23.50;99.90;;;23.98;60.86;102573.84;5055108;28;20044;-60
2022/08/10 07:21:31;;;;;;;2.58;2.47;;;23.70;99.90;;;24.05;60.65;102584.44;5055003;28;20040;-60
2022/08/10 07:24:01;;;;;;;2.33;2.23;;;23.70;99.90;;;24.20;60.26;102592.97;5054930;28;20045;-59
2022/08/10 07:26:31;;;;;;;2.20;2.10;;;23.90;99.90;;;24.28;59.92;102569.22;5054927;28;20052;-59
2022/08/10 07:29:01;;;;;;;2.35;2.25;;;24.10;99.90;;;24.44;59.80;102587.63;5054001;28;20132;-59
2022/08/10 07:31:32;;;;;;;2.20;2.10;;;24.20;99.90;;;24.29;60.54;102579.13;5054764;28;20523;-59
2022/08/10 07:34:22;;;;;;;;;;;24.00;99.90;;;24.53;59.39;102591.81;5070953;28;20048;-60
2022/08/10 07:37:02;;;;;;;2.63;2.53;;;24.20;99.90;;;24.33;59.06;102581.66;5054633;28;20374;-60
2022/08/10 07:39:33;;;;;;;2.05;1.95;;;24.10;99.90;;;24.03;59.16;102516.00;5055017;28;20045;-60
2022/08/10 07:42:24;;;;;;;5.55;2.88;;;24.10;99.90;;;24.48;59.13;102583.88;5054740;28;20044;-60
2022/08/10 07:44:53;;;;;;;2.13;2.03;;;24.20;99.90;;;24.43;59.48;102587.69;5054529;28;20052;-60
2022/08/10 07:47:37;;;;;;;2.50;2.40;;;24.20;99.90;;;24.35;59.71;102587.91;5054533;28;20049;-60
2022/08/10 07:50:24;;;;;;;2.10;2.00;;;24.10;99.90;;;24.71;59.71;102592.06;5054452;28;20045;-60
2022/08/10 07:53:01;;;;;;;2.40;2.30;;;24.30;99.90;;;24.84;59.21;102595.22;5054489;28;20048;-60
2022/08/10 07:55:33;;;;;;;2.00;1.90;;;24.50;99.90;;;24.94;58.87;102589.44;5054358;28;20053;-59
2022/08/10 07:58:29;;;;;;;2.35;2.25;;;24.60;99.90;;;25.19;57.24;102593.94;5054226;28;20135;-59
2022/08/10 08:00:59;;;;;;;1.95;1.85;;;24.90;99.90;;;25.24;57.86;102605.50;5054239;28;20091;-60
2022/08/10 08:03:30;;;;;;;2.08;1.98;;;24.90;99.90;;;25.56;57.72;102608.78;5054264;28;20053;-58
2022/08/10 08:06:02;;;;;;;5.50;4.97;;;25.20;99.90;;;25.59;57.19;102605.94;5053842;28;20076;-59
2022/08/10 08:08:42;;;;;;;2.42;2.33;;;25.40;99.90;;;25.66;56.58;102615.63;5054106;28;20055;-59
2022/08/10 08:11:14;;;;;;;2.10;2.00;;;25.50;99.90;;;25.96;57.24;102615.34;5053962;28;20094;-59
2022/08/10 08:13:55;;;;;;;2.00;1.90;;;25.60;99.90;;;26.21;56.41;102605.28;5053898;28;20044;-60
2022/08/10 08:16:24;;;;;;;1.60;1.60;;;25.90;99.90;;;25.82;54.06;102567.94;5054518;28;20037;-61
2022/08/10 08:18:56;;;;;;;1.97;1.87;;;25.90;99.90;;;26.18;55.26;102592.72;5054107;28;20045;-60
2022/08/10 08:21:46;;;;;;;2.10;2.00;;;25.90;99.90;;;26.35;54.98;102608.28;5054160;28;20132;-58
2022/08/10 08:24:37;;;;;;;2.30;2.20;;;26.10;99.90;;;26.58;54.65;102610.88;5054124;28;20459;-61
2022/08/10 08:27:07;;;;;;;1.70;1.70;;;26.30;99.90;;;26.59;53.87;102607.25;5053724;28;20045;-59
2022/08/10 08:29:39;;;;;;;2.13;2.03;;;26.40;99.90;;;26.75;53.87;102605.66;5054034;28;20443;-60
2022/08/10 08:32:08;;;;;;;2.00;1.90;;;26.50;99.90;;;26.98;53.68;102610.06;5053598;28;20071;-62
2022/08/10 08:34:41;;;;;;;1.88;1.83;;;26.70;99.90;;;27.08;52.33;102612.28;5053542;28;20475;-59
2022/08/10 08:37:15;;;;;;;1.75;1.75;;;26.80;99.90;;;27.23;52.74;102599.84;5052507;28;20098;-58
2022/08/10 08:40:09;;;;;;;1.48;1.48;;;27.00;99.90;;;27.40;51.39;102606.31;5054019;28;20131;-60
2022/08/10 08:43:16;;;;;;;1.77;1.77;;;27.20;99.90;;;27.36;50.84;102598.34;5053426;28;20037;-60
2022/08/10 08:46:19;;;;;;;1.60;1.60;;;27.30;99.90;;;27.39;49.50;102606.38;5033113;28;20115;-60
2022/08/10 08:49:09;;;;;;;1.73;1.73;;;27.30;99.90;;;27.51;49.15;102612.09;5051104;28;20083;-60
2022/08/10 08:51:49;;;;;;;1.45;1.45;;;27.30;99.90;;;27.77;50.23;102609.97;5053529;28;20098;-60
2022/08/10 08:54:51;;;;;;;1.58;1.58;;;27.50;99.90;;;27.97;49.96;102605.34;5052180;28;20475;-60
2022/08/10 08:57:27;;;;;;;1.60;1.60;;;27.70;99.90;;;28.13;49.43;102603.66;5053267;28;20048;-60
2022/08/10 09:00:23;;;;;;;1.60;1.60;;;27.90;99.90;;;28.33;48.93;102602.66;5053174;28;20406;-60
2022/08/10 09:03:30;;;;;;;1.73;1.73;;;28.10;99.90;;;28.57;48.00;102601.44;5053610;28;20041;-60
2022/08/10 09:06:18;;;;;;;1.42;1.42;;;28.30;99.90;;;28.57;46.02;102592.38;5050234;28;20060;-60
2022/08/10 09:09:11;;;;;;;1.40;1.40;;;28.40;99.90;;;28.47;46.31;102583.78;5052996;28;20049;-60
2022/08/10 09:12:03;;;;;;;1.42;1.42;;;28.40;99.90;;;28.38;47.51;102519.75;5053482;28;20064;-60
2022/08/10 09:14:40;;;;;;;1.60;1.60;;;28.60;99.90;;;28.70;46.85;102591.66;5052928;28;20045;-60
2022/08/10 09:17:17;;;;;;;1.45;1.45;;;28.50;99.90;;;28.98;46.87;102586.47;5052280;28;20056;-60
2022/08/10 09:19:54;;;;;;;1.40;1.40;;;28.70;99.90;;;29.08;45.08;102587.75;5053080;28;20079;-60
2022/08/10 09:22:31;;;;;;;1.30;1.30;;;28.90;99.90;;;28.80;44.33;102575.69;5053448;28;20110;-61
2022/08/10 09:25:14;;;;;;;1.50;1.50;;;28.70;99.90;;;28.20;46.63;102572.44;5053007;28;20061;-60
2022/08/10 09:27:47;;;;;;;1.70;1.70;;;28.10;99.90;;;28.44;45.94;102548.50;5052912;28;20037;-60
2022/08/10 09:30:24;;;;;;;1.50;1.50;;;28.30;99.90;;;28.81;46.05;102583.78;5053108;28;20045;-60
2022/08/10 09:33:07;;;;;;;1.60;1.60;;;28.50;99.90;;;28.72;44.62;102565.22;5052950;28;20053;-60
2022/08/10 09:36:07;;;;;;;1.50;1.50;;;28.50;99.90;;;28.23;45.78;102579.56;5052800;28;20044;-60
2022/08/10 09:39:07;;;;;;;1.50;1.50;;;28.20;99.90;;;28.34;45.65;102561.72;5052960;28;20041;-60
2022/08/10 09:41:51;;;;;;;1.50;1.50;;;28.10;99.90;;;28.64;44.45;102532.03;5052751;28;20041;-60
2022/08/10 09:44:34;;;;;;;1.30;1.30;;;28.40;99.90;;;29.05;44.29;102559.78;5053091;28;20079;-60
2022/08/10 09:47:44;;;;;;;1.30;1.30;;;28.70;99.90;;;29.20;43.47;102559.88;5052620;28;20049;-60
2022/08/10 09:50:37;;;;;;;1.50;1.40;;;28.90;99.90;;;29.12;42.97;102550.28;5052579;28;20044;-60
2022/08/10 09:53:56;;;;;;;1.30;1.30;;;29.00;99.90;;;29.29;41.81;102551.16;5053142;28;20056;-60
2022/08/10 09:56:32;;;;;;;1.20;1.20;;;29.10;99.90;;;29.54;41.82;102547.06;5052834;28;20056;-61
2022/08/10 09:59:14;;;;;;;1.50;1.50;;;29.20;99.90;;;28.25;42.30;102517.75;5052463;28;20041;-61
2022/08/10 10:02:18;;;;;;;1.75;1.65;;;28.30;99.90;;;28.93;41.28;102539.53;5068073;28;20080;-60
2022/08/10 10:05:03;;;;;;;1.40;1.40;;;28.50;99.90;;;28.64;40.81;102537.50;5052756;28;20449;-60
2022/08/10 10:07:34;;;;;;;1.50;1.50;;;28.40;99.90;;;28.45;41.34;102490.38;5052474;28;20102;-60
2022/08/10 10:10:10;;;;;;;1.40;1.40;;;28.50;99.90;;;29.11;41.97;102543.09;5067976;28;20056;-60
2022/08/10 10:12:51;;;;;;;1.63;1.55;;;28.80;99.90;;;28.87;40.83;102533.53;5052357;28;20044;-60
2022/08/10 10:15:33;;;;;;;1.58;1.58;;;28.70;99.90;;;28.36;42.19;102531.69;5052348;28;20471;-60
2022/08/10 10:18:29;;;;;;;2.17;2.08;;;28.20;99.90;;;27.86;43.07;102528.78;5052447;28;20091;-61
2022/08/10 10:21:05;;;;;;;1.90;1.80;;;27.70;99.90;;;27.39;43.74;102522.97;5051199;28;20053;-61
2022/08/10 10:23:50;;;;;;;1.95;1.85;;;27.20;99.90;;;27.02;44.80;102508.44;5052266;28;20083;-60
2022/08/10 10:26:48;;;;;;;2.78;2.58;;;26.70;99.90;;;26.74;42.90;102495.25;5052178;28;20051;-60
2022/08/10 10:29:30;;;;;;;1.70;1.70;;;26.60;99.90;;;27.57;43.85;102508.47;5053898;28;20490;-60
2022/08/10 10:32:48;;;;;;;2.55;2.35;;;27.00;99.90;;;27.97;42.71;102509.25;5055797;28;20128;-61
2022/08/10 10:35:24;;;;;;;2.08;1.98;;;27.50;99.90;;;28.50;43.47;102507.34;5055837;28;20058;-60
2022/08/10 10:37:54;;;;;;;2.00;1.90;;;28.10;99.90;;;28.13;40.65;102518.38;5071103;28;20073;-61
2022/08/10 10:40:40;;;;;;;2.53;2.33;;;28.00;99.90;;;27.96;40.69;102508.38;5055615;28;20091;-60
2022/08/10 10:43:23;;;;;;;2.10;2.00;;;27.60;99.90;;;28.01;39.40;102516.31;5071201;28;20045;-61
2022/08/10 10:46:06;;;;;;;1.90;1.85;;;27.80;99.90;;;27.77;42.51;102506.59;5055595;28;20136;-60
2022/08/10 10:48:46;;;;;;;1.77;1.77;;;27.30;99.90;;;28.37;41.15;102511.69;5055615;28;20075;-61
2022/08/10 10:51:21;;;;;;;1.90;1.80;;;27.80;99.90;;;28.80;39.89;102503.00;5056044;28;20098;-61
2022/08/10 10:54:01;;;;;;;1.67;1.67;;;28.40;99.90;;;28.95;39.47;102507.63;5055794;28;20139;-60
2022/08/10 10:56:43;;;;;;;1.80;1.70;;;28.70;99.90;;;27.87;40.36;102499.75;5055447;28;20166;-61
2022/08/10 10:59:26;;;;;;;1.92;1.83;;;27.80;99.90;;;27.84;40.43;102506.22;5055310;28;20132;-60
2022/08/10 11:02:31;;;;;;;1.65;1.65;;;27.40;99.90;;;28.05;41.74;102499.72;5055363;28;20102;-60
2022/08/10 11:05:17;;;;;;;1.92;1.83;;;27.50;99.90;;;28.30;40.85;102504.81;5055615;28;20114;-61
2022/08/10 11:07:55;;;;;;;2.05;1.95;;;27.90;99.90;;;27.52;41.47;102493.34;5055231;28;20045;-60
2022/08/10 11:10:30;;;;;;;1.70;1.70;;;27.30;99.90;;;28.32;41.40;102489.25;5055239;28;20049;-60